Airport ID:KCXP
Update Time (UTC):17/01/2021 07:12
Wind Speed (Knots):2
Wind Direction (Magnetic):120
Temperature (°C):1
Dew Point (°C):-3
Humidity (%):76
Altimeter (inHg):30.39
Density Altitude (Feet):
Visibility:10+
Clouds (Hundreds of feet):CLR
Present Weather:
METAR:METAR KCXP 170710Z AUTO 00000KT 10SM CLR 01/M03 A3039 RMK AO2

The data displayed is for advisory purposes only and is not to be used for flight planning or operations.